createdAt,value
2023-12-30T00:02:18.888Z,0.80
2023-12-30T00:04:45.416Z,0.63
2023-12-30T00:07:11.903Z,0.70
2023-12-30T00:09:38.893Z,0.90
2023-12-30T00:12:05.924Z,0.82
2023-12-30T00:14:32.475Z,0.57
2023-12-30T00:16:59.244Z,0.60
2023-12-30T00:19:25.931Z,0.88
2023-12-30T00:21:53.422Z,0.45
2023-12-30T00:24:19.952Z,0.80
2023-12-30T00:26:46.575Z,0.77
2023-12-30T00:29:13.486Z,0.60
2023-12-30T00:31:40.199Z,1.10
2023-12-30T00:34:06.816Z,0.40
2023-12-30T00:36:33.266Z,0.40
2023-12-30T00:38:59.700Z,0.60
2023-12-30T00:41:26.664Z,0.68
2023-12-30T00:43:53.349Z,0.70
2023-12-30T00:46:20.933Z,0.65
2023-12-30T00:48:56.498Z,0.40
2023-12-30T00:51:24.545Z,0.40
2023-12-30T00:53:50.973Z,0.60
2023-12-30T00:56:17.379Z,1.00
2023-12-30T00:58:43.800Z,0.57
2023-12-30T01:01:10.388Z,0.77
2023-12-30T01:03:36.886Z,0.70
2023-12-30T01:06:03.494Z,0.80
2023-12-30T01:08:29.981Z,0.95
2023-12-30T01:10:56.534Z,0.70
2023-12-30T01:13:23.034Z,0.70
2023-12-30T01:15:49.550Z,0.75
2023-12-30T01:18:16.192Z,0.63
2023-12-30T01:20:42.710Z,0.77
2023-12-30T01:23:09.215Z,0.77
2023-12-30T01:25:38.926Z,1.23
2023-12-30T01:28:06.476Z,0.70
2023-12-30T01:30:32.914Z,0.80
2023-12-30T01:32:59.748Z,0.63
2023-12-30T01:35:26.494Z,0.60
2023-12-30T01:37:53.026Z,0.70
2023-12-30T01:40:19.536Z,0.68
2023-12-30T01:42:46.095Z,0.80
2023-12-30T01:45:13.146Z,1.00
2023-12-30T01:47:40.426Z,0.85
2023-12-30T01:50:08.343Z,0.85
2023-12-30T01:52:36.897Z,0.70
2023-12-30T01:55:08.832Z,0.80
2023-12-30T01:57:35.468Z,0.77
2023-12-30T02:00:02.696Z,0.57
2023-12-30T02:02:29.828Z,0.60
2023-12-30T02:04:56.598Z,0.68
2023-12-30T02:07:23.133Z,0.80
2023-12-30T02:09:50.450Z,0.63
2023-12-30T02:12:17.037Z,0.57
2023-12-30T02:14:43.457Z,0.77
2023-12-30T02:17:09.950Z,0.57
2023-12-30T02:19:37.167Z,0.63
2023-12-30T02:22:03.839Z,0.60
2023-12-30T02:24:30.449Z,0.63
2023-12-30T02:26:56.852Z,0.70
2023-12-30T02:29:23.299Z,1.05
2023-12-30T02:31:50.032Z,1.50
2023-12-30T02:34:18.509Z,1.02
2023-12-30T02:36:46.625Z,0.70
2023-12-30T02:39:13.706Z,0.60
2023-12-30T02:41:40.525Z,0.70
2023-12-30T02:44:07.524Z,0.60
2023-12-30T02:46:34.014Z,0.75
2023-12-30T02:49:04.715Z,0.82
2023-12-30T02:51:31.710Z,0.68
2023-12-30T02:53:58.245Z,0.90
2023-12-30T02:56:26.593Z,0.57
2023-12-30T02:58:58.178Z,0.82
2023-12-30T03:03:57.050Z,0.47
2023-12-30T03:06:24.344Z,0.80
2023-12-30T03:08:52.027Z,0.77
2023-12-30T03:11:19.444Z,0.65
2023-12-30T03:13:46.260Z,0.80
2023-12-30T03:16:14.863Z,0.70
2023-12-30T03:18:42.664Z,0.57
2023-12-30T03:21:11.631Z,0.65
2023-12-30T03:23:38.717Z,0.57
2023-12-30T03:26:06.217Z,0.88
2023-12-30T03:28:32.893Z,0.70
2023-12-30T03:30:59.459Z,0.98
2023-12-30T03:33:26.317Z,1.38
2023-12-30T03:35:53.279Z,0.80
2023-12-30T03:38:20.104Z,0.98
2023-12-30T03:40:46.544Z,1.02
2023-12-30T03:43:14.282Z,0.90
2023-12-30T03:45:40.965Z,0.70
2023-12-30T03:48:08.587Z,1.23
2023-12-30T03:50:37.712Z,0.70
2023-12-30T03:53:05.225Z,0.82
2023-12-30T03:55:31.763Z,0.73
2023-12-30T03:57:58.345Z,0.95
2023-12-30T04:00:24.775Z,1.88
2023-12-30T04:02:51.273Z,0.70
2023-12-30T04:05:17.810Z,0.80
2023-12-30T04:07:44.286Z,0.65
2023-12-30T04:10:13.225Z,1.55
2023-12-30T04:12:40.081Z,0.68
2023-12-30T04:15:08.134Z,0.98
2023-12-30T04:17:34.647Z,0.98
2023-12-30T04:20:01.190Z,0.98
2023-12-30T04:22:29.694Z,0.82
2023-12-30T04:24:58.612Z,1.05
2023-12-30T04:27:25.311Z,1.10
2023-12-30T04:29:52.025Z,0.85
2023-12-30T04:32:22.011Z,0.90
2023-12-30T04:34:50.153Z,1.85
2023-12-30T04:37:17.190Z,0.90
2023-12-30T04:39:43.722Z,0.65
2023-12-30T04:42:11.054Z,1.17
2023-12-30T04:44:37.471Z,0.80
2023-12-30T04:47:04.084Z,0.82
2023-12-30T04:49:30.632Z,1.02
2023-12-30T04:51:57.145Z,1.00
2023-12-30T04:54:23.667Z,0.90
2023-12-30T04:56:50.839Z,1.10
2023-12-30T04:59:17.243Z,1.83
2023-12-30T05:01:43.642Z,1.40
2023-12-30T05:04:10.108Z,1.30
2023-12-30T05:06:36.678Z,0.85
2023-12-30T05:09:04.169Z,1.00
2023-12-30T05:11:30.691Z,1.48
2023-12-30T05:13:57.244Z,1.00
2023-12-30T05:16:23.727Z,0.90
2023-12-30T05:18:50.288Z,0.80
2023-12-30T05:21:17.753Z,1.10
2023-12-30T05:23:44.983Z,1.45
2023-12-30T05:26:15.090Z,0.80
2023-12-30T05:28:41.634Z,0.60
2023-12-30T05:31:08.677Z,1.00
2023-12-30T05:33:35.501Z,1.00
2023-12-30T05:36:02.017Z,1.10
2023-12-30T05:38:28.409Z,0.85
2023-12-30T05:40:54.914Z,1.10
2023-12-30T05:43:22.119Z,0.90
2023-12-30T05:45:49.491Z,1.20
2023-12-30T05:48:16.091Z,1.23
2023-12-30T05:50:42.598Z,1.42
2023-12-30T05:53:11.608Z,1.10
2023-12-30T05:55:39.727Z,1.10
2023-12-30T05:58:06.395Z,1.20
2023-12-30T06:00:32.921Z,1.30
2023-12-30T06:02:59.477Z,0.90
2023-12-30T06:05:26.963Z,0.98
2023-12-30T06:07:53.559Z,1.52
2023-12-30T06:10:20.888Z,1.65
2023-12-30T06:12:47.447Z,1.08
2023-12-30T06:15:13.974Z,1.30
2023-12-30T06:17:40.620Z,1.10
2023-12-30T06:20:09.407Z,1.15
2023-12-30T06:22:36.229Z,1.38
2023-12-30T06:25:04.946Z,1.15
2023-12-30T06:27:31.565Z,1.45
2023-12-30T06:29:58.064Z,0.88
2023-12-30T06:32:24.561Z,1.08
2023-12-30T06:34:50.988Z,1.35
2023-12-30T06:37:17.540Z,1.65
2023-12-30T06:39:44.675Z,1.27
2023-12-30T06:42:11.131Z,0.95
2023-12-30T06:44:37.609Z,1.05
2023-12-30T06:47:06.269Z,1.25
2023-12-30T06:49:33.192Z,0.93
2023-12-30T06:51:59.702Z,1.00
2023-12-30T06:54:26.999Z,1.00
2023-12-30T06:56:54.771Z,1.05
2023-12-30T06:59:21.550Z,1.27
2023-12-30T07:01:47.976Z,1.27
2023-12-30T07:04:15.396Z,1.00
2023-12-30T07:06:42.097Z,1.35
2023-12-30T07:09:08.559Z,1.08
2023-12-30T07:11:35.133Z,0.93
2023-12-30T07:14:01.698Z,1.45
2023-12-30T07:16:28.294Z,1.35
2023-12-30T07:18:54.872Z,1.88
2023-12-30T07:21:21.440Z,1.13
2023-12-30T07:23:47.897Z,1.10
2023-12-30T07:26:14.480Z,1.45
2023-12-30T07:28:40.950Z,1.20
2023-12-30T07:31:07.885Z,1.08
2023-12-30T07:33:36.639Z,0.90
2023-12-30T07:36:05.228Z,1.00
2023-12-30T07:38:32.090Z,1.23
2023-12-30T07:40:58.509Z,1.20
2023-12-30T07:43:25.617Z,1.30
2023-12-30T07:45:52.196Z,1.80
2023-12-30T07:48:18.665Z,1.55
2023-12-30T07:50:45.048Z,1.48
2023-12-30T07:53:11.504Z,1.30
2023-12-30T07:55:37.930Z,1.40
2023-12-30T07:58:04.727Z,1.27
2023-12-30T08:00:31.372Z,1.23
2023-12-30T08:02:57.861Z,1.20
2023-12-30T08:05:24.278Z,1.92
2023-12-30T08:07:50.812Z,2.45
2023-12-30T08:10:19.463Z,1.42
2023-12-30T08:12:45.940Z,1.70
2023-12-30T08:15:12.491Z,1.52
2023-12-30T08:17:39.241Z,1.58
2023-12-30T08:20:06.630Z,1.98
2023-12-30T08:22:33.577Z,1.10
2023-12-30T08:25:00.409Z,1.42
2023-12-30T08:27:27.150Z,2.33
2023-12-30T08:29:53.775Z,1.50
2023-12-30T08:32:20.175Z,1.80
2023-12-30T08:34:46.707Z,1.33
2023-12-30T08:37:13.295Z,1.45
2023-12-30T08:39:39.798Z,1.48
2023-12-30T08:42:06.935Z,2.13
2023-12-30T08:44:33.778Z,1.48
2023-12-30T08:47:00.552Z,1.33
2023-12-30T08:49:27.215Z,1.17
2023-12-30T08:51:53.739Z,1.33
2023-12-30T08:54:20.219Z,1.67
2023-12-30T08:56:46.709Z,1.55
2023-12-30T08:59:13.201Z,1.35
2023-12-30T09:01:39.842Z,1.35
2023-12-30T09:04:06.475Z,2.08
2023-12-30T09:06:33.036Z,1.70
2023-12-30T09:08:59.460Z,1.45
2023-12-30T09:11:26.064Z,2.35
2023-12-30T09:13:53.639Z,2.25
2023-12-30T09:16:20.418Z,1.77
2023-12-30T09:18:47.038Z,1.20
2023-12-30T09:21:14.261Z,1.80
2023-12-30T09:23:41.430Z,1.13
2023-12-30T09:26:07.862Z,1.58
2023-12-30T09:28:34.750Z,1.80
2023-12-30T09:31:02.288Z,2.25
2023-12-30T09:33:29.445Z,2.40
2023-12-30T09:35:56.274Z,1.45
2023-12-30T09:38:26.563Z,1.60
2023-12-30T09:40:54.945Z,1.48
2023-12-30T09:43:30.550Z,1.42
2023-12-30T09:45:59.210Z,1.45
2023-12-30T09:48:28.325Z,1.48
2023-12-30T09:50:56.634Z,1.20
2023-12-30T09:53:24.681Z,1.85
2023-12-30T09:55:52.394Z,1.60
2023-12-30T09:58:20.457Z,1.27
2023-12-30T10:00:47.395Z,1.70
2023-12-30T10:03:15.604Z,1.88
2023-12-30T10:05:42.665Z,1.95
2023-12-30T10:08:09.527Z,1.50
2023-12-30T10:10:45.363Z,1.88
2023-12-30T10:13:13.661Z,1.70
2023-12-30T10:15:41.599Z,1.42
2023-12-30T10:18:09.082Z,3.05
2023-12-30T10:20:42.022Z,2.53
2023-12-30T10:23:08.618Z,2.33
2023-12-30T10:25:35.816Z,2.63
2023-12-30T10:28:03.561Z,1.50
2023-12-30T10:30:31.681Z,2.85
2023-12-30T10:33:15.328Z,2.40
2023-12-30T10:35:45.419Z,1.40
2023-12-30T10:38:14.101Z,1.60
2023-12-30T10:40:41.566Z,2.08
2023-12-30T10:43:09.789Z,1.77
2023-12-30T10:45:36.752Z,1.98
2023-12-30T10:48:07.219Z,1.60
2023-12-30T10:50:38.388Z,1.73
2023-12-30T10:53:17.156Z,2.03
2023-12-30T10:55:50.160Z,2.75
2023-12-30T10:58:21.604Z,2.03
2023-12-30T11:00:58.304Z,1.80
2023-12-30T11:03:26.811Z,2.08
2023-12-30T11:06:11.370Z,2.00
2023-12-30T11:08:38.101Z,2.00
2023-12-30T11:11:05.762Z,2.25
2023-12-30T11:13:36.516Z,1.70
2023-12-30T11:16:33.619Z,3.00
2023-12-30T11:19:00.484Z,2.13
2023-12-30T11:21:44.753Z,1.85
2023-12-30T11:24:12.450Z,2.22
2023-12-30T11:26:46.735Z,1.92
2023-12-30T11:29:17.054Z,1.27
2023-12-30T11:31:45.504Z,1.83
2023-12-30T11:34:14.493Z,2.13
2023-12-30T11:36:42.466Z,2.20
2023-12-30T11:39:09.037Z,2.67
2023-12-30T11:41:36.316Z,1.40
2023-12-30T11:44:04.595Z,2.58
2023-12-30T11:46:31.407Z,1.77
2023-12-30T11:48:58.170Z,3.22
2023-12-30T11:51:33.537Z,2.05
2023-12-30T11:54:06.488Z,1.98
2023-12-30T11:56:34.031Z,1.77
2023-12-30T11:59:01.644Z,2.65
2023-12-30T12:01:28.179Z,1.70
2023-12-30T12:03:54.965Z,3.28
2023-12-30T12:06:21.569Z,2.80
2023-12-30T12:08:48.524Z,1.88
2023-12-30T12:11:15.112Z,2.55
2023-12-30T12:13:42.020Z,2.08
2023-12-30T12:16:09.025Z,3.90
2023-12-30T12:18:36.123Z,3.42
2023-12-30T12:21:05.070Z,2.47
2023-12-30T12:23:32.264Z,2.08
2023-12-30T12:25:59.939Z,2.17
2023-12-30T12:28:26.657Z,2.20
2023-12-30T12:30:53.243Z,2.10
2023-12-30T12:33:20.417Z,1.92
2023-12-30T12:35:47.110Z,3.55
2023-12-30T12:38:13.579Z,3.08
2023-12-30T12:40:40.182Z,2.30
2023-12-30T12:43:08.414Z,2.20
2023-12-30T12:45:36.185Z,1.85
2023-12-30T12:48:03.255Z,1.77
2023-12-30T12:50:33.048Z,2.05
2023-12-30T12:52:59.792Z,2.22
2023-12-30T12:55:26.473Z,1.75
2023-12-30T12:57:53.046Z,2.00
2023-12-30T13:00:19.607Z,2.60
2023-12-30T13:02:46.369Z,2.80
2023-12-30T13:05:16.630Z,1.92
2023-12-30T13:07:44.553Z,1.77
2023-12-30T13:10:29.823Z,1.60
2023-12-30T13:12:56.589Z,2.67
2023-12-30T13:15:25.932Z,1.48
2023-12-30T13:17:53.064Z,1.75
2023-12-30T13:20:19.686Z,2.95
2023-12-30T13:22:46.261Z,1.55
2023-12-30T13:25:14.724Z,4.25
2023-12-30T13:27:41.338Z,2.67
2023-12-30T13:30:08.352Z,1.40
2023-12-30T13:32:36.365Z,1.52
2023-12-30T13:35:03.356Z,1.60
2023-12-30T13:37:29.994Z,1.85
2023-12-30T13:39:59.915Z,1.33
2023-12-30T13:42:26.528Z,2.03
2023-12-30T13:44:57.332Z,1.60
2023-12-30T13:47:41.460Z,1.83
2023-12-30T13:50:17.502Z,1.60
2023-12-30T13:52:44.233Z,1.92
2023-12-30T13:55:19.182Z,1.65
2023-12-30T13:57:47.224Z,1.58
2023-12-30T14:00:15.435Z,2.30
2023-12-30T14:02:44.585Z,1.52
2023-12-30T14:05:19.835Z,2.00
2023-12-30T14:07:46.680Z,1.70
2023-12-30T14:10:19.408Z,2.45
2023-12-30T14:12:46.725Z,2.13
2023-12-30T14:15:14.460Z,1.98
2023-12-30T14:17:43.835Z,1.38
2023-12-30T14:20:11.835Z,2.13
2023-12-30T14:22:38.512Z,1.98
2023-12-30T14:25:12.307Z,2.08
2023-12-30T14:27:41.398Z,2.10
2023-12-30T14:30:08.425Z,2.65
2023-12-30T14:32:35.286Z,2.13
2023-12-30T14:35:02.136Z,2.20
2023-12-30T14:37:29.194Z,2.15
2023-12-30T14:39:55.955Z,4.03
2023-12-30T14:42:22.464Z,5.25
2023-12-30T14:44:49.179Z,4.90
2023-12-30T14:47:15.985Z,3.78
2023-12-30T14:49:42.585Z,1.88
2023-12-30T14:52:09.075Z,2.13
2023-12-30T14:54:36.018Z,1.40
2023-12-30T14:57:03.862Z,2.20
2023-12-30T14:59:30.354Z,2.38
2023-12-30T15:01:58.379Z,2.15
2023-12-30T15:04:25.258Z,1.90
2023-12-30T15:06:52.100Z,1.35
2023-12-30T15:09:18.722Z,2.45
2023-12-30T15:11:45.976Z,1.90
2023-12-30T15:14:12.480Z,1.77
2023-12-30T15:16:39.168Z,1.98
2023-12-30T15:19:06.031Z,1.77
2023-12-30T15:21:35.301Z,2.08
2023-12-30T15:24:02.270Z,1.70
2023-12-30T15:26:28.803Z,2.22
2023-12-30T15:28:55.932Z,2.40
2023-12-30T15:31:23.194Z,3.33
2023-12-30T15:33:50.110Z,2.60
2023-12-30T15:36:16.821Z,3.28
2023-12-30T15:38:43.257Z,2.40
2023-12-30T15:41:09.986Z,3.13
2023-12-30T15:43:36.524Z,2.47
2023-12-30T15:46:03.582Z,3.10
2023-12-30T15:48:30.422Z,2.10
2023-12-30T15:50:57.870Z,3.45
2023-12-30T15:53:24.423Z,2.70
2023-12-30T15:55:51.136Z,2.05
2023-12-30T15:58:18.290Z,1.85
2023-12-30T16:00:45.376Z,2.45
2023-12-30T16:03:15.143Z,3.53
2023-12-30T16:05:42.714Z,2.92
2023-12-30T16:08:10.714Z,2.33
2023-12-30T16:10:37.429Z,2.13
2023-12-30T16:13:04.358Z,2.10
2023-12-30T16:15:34.588Z,2.38
2023-12-30T16:18:02.050Z,1.95
2023-12-30T16:20:28.653Z,1.98
2023-12-30T16:22:55.210Z,1.65
2023-12-30T16:25:21.690Z,1.92
2023-12-30T16:27:49.209Z,1.60
2023-12-30T16:30:16.330Z,1.90
2023-12-30T16:32:43.027Z,1.45
2023-12-30T16:35:10.026Z,2.13
2023-12-30T16:37:37.094Z,1.98
2023-12-30T16:40:05.742Z,2.08
2023-12-30T16:42:32.597Z,1.90
2023-12-30T16:45:00.372Z,1.95
2023-12-30T16:47:27.319Z,1.85
2023-12-30T16:49:54.114Z,2.22
2023-12-30T16:52:20.712Z,2.33
2023-12-30T16:54:47.400Z,3.00
2023-12-30T16:57:13.890Z,2.75
2023-12-30T16:59:40.538Z,2.75
2023-12-30T17:02:07.249Z,2.92
2023-12-30T17:04:33.904Z,4.55
2023-12-30T17:07:00.410Z,2.97
2023-12-30T17:09:27.011Z,2.42
2023-12-30T17:11:53.472Z,2.58
2023-12-30T17:14:19.997Z,3.20
2023-12-30T17:16:46.777Z,2.45
2023-12-30T17:19:13.495Z,3.38
2023-12-30T17:21:39.965Z,2.60
2023-12-30T17:24:08.249Z,3.33
2023-12-30T17:26:34.786Z,2.55
2023-12-30T17:29:01.212Z,4.32
2023-12-30T17:31:27.827Z,2.85
2023-12-30T17:33:54.409Z,4.82
2023-12-30T17:36:21.142Z,4.00
2023-12-30T17:38:50.179Z,3.33
2023-12-30T17:41:16.657Z,3.00
2023-12-30T17:43:44.276Z,3.00
2023-12-30T17:46:10.776Z,3.22
2023-12-30T17:48:37.497Z,3.20
2023-12-30T17:51:04.165Z,3.03
2023-12-30T17:53:32.160Z,3.05
2023-12-30T17:55:58.713Z,3.60
2023-12-30T17:58:25.228Z,3.22
2023-12-30T18:00:51.723Z,2.65
2023-12-30T18:03:18.280Z,2.40
2023-12-30T18:05:44.831Z,2.72
2023-12-30T18:08:11.908Z,2.63
2023-12-30T18:10:38.459Z,2.33
2023-12-30T18:13:05.231Z,2.42
2023-12-30T18:15:32.249Z,2.80
2023-12-30T18:17:58.809Z,2.85
2023-12-30T18:20:25.586Z,3.20
2023-12-30T18:22:52.342Z,2.38
2023-12-30T18:25:19.124Z,2.95
2023-12-30T18:27:45.615Z,2.08
2023-12-30T18:30:13.178Z,2.80
2023-12-30T18:32:39.977Z,2.45
2023-12-30T18:35:07.120Z,3.03
2023-12-30T18:37:33.641Z,2.45
2023-12-30T18:40:00.947Z,2.67
2023-12-30T18:42:27.396Z,2.25
2023-12-30T18:44:53.816Z,2.50
2023-12-30T18:47:20.246Z,2.20
2023-12-30T18:49:46.652Z,2.67
2023-12-30T18:52:15.460Z,2.40
2023-12-30T18:54:41.918Z,2.42
2023-12-30T18:57:08.304Z,2.60
2023-12-30T18:59:34.874Z,1.90
2023-12-30T19:02:01.980Z,3.00
2023-12-30T19:04:29.922Z,4.90
2023-12-30T19:06:56.675Z,11.35
2023-12-30T19:09:23.080Z,12.52
2023-12-30T19:11:49.485Z,10.15
2023-12-30T19:14:15.984Z,11.32
2023-12-30T19:16:42.564Z,10.15
2023-12-30T19:19:08.974Z,11.60
2023-12-30T19:21:35.983Z,10.93
2023-12-30T19:24:05.249Z,9.70
2023-12-30T19:26:31.887Z,9.35
2023-12-30T19:28:58.454Z,12.07
2023-12-30T19:31:25.032Z,10.68
2023-12-30T19:33:51.765Z,14.57
2023-12-30T19:36:18.746Z,17.27
2023-12-30T19:38:45.676Z,15.93
2023-12-30T19:41:12.439Z,18.88
2023-12-30T19:43:38.939Z,19.13
2023-12-30T19:46:07.510Z,22.35
2023-12-30T19:48:35.282Z,24.63
2023-12-30T19:51:04.851Z,20.40
2023-12-30T19:53:32.515Z,21.02
2023-12-30T19:55:59.104Z,20.45
2023-12-30T19:58:27.906Z,18.42
2023-12-30T20:00:54.409Z,19.15
2023-12-30T20:03:20.913Z,16.63
2023-12-30T20:05:47.617Z,15.80
2023-12-30T20:08:14.181Z,15.30
2023-12-30T20:10:40.752Z,15.82
2023-12-30T20:13:07.435Z,9.30
2023-12-30T20:15:34.076Z,6.45
2023-12-30T20:18:01.111Z,5.38
2023-12-30T20:20:27.639Z,4.05
2023-12-30T20:22:54.092Z,4.80
2023-12-30T20:25:20.618Z,5.40
2023-12-30T20:27:47.059Z,5.05
2023-12-30T20:30:13.932Z,6.32
2023-12-30T20:32:41.508Z,6.63
2023-12-30T20:35:08.150Z,6.68
2023-12-30T20:37:34.589Z,7.13
2023-12-30T20:40:01.022Z,6.95
2023-12-30T20:42:30.058Z,8.27
2023-12-30T20:44:56.962Z,8.13
2023-12-30T20:47:23.888Z,7.03
2023-12-30T20:49:51.266Z,6.47
2023-12-30T20:52:20.101Z,4.47
2023-12-30T20:54:46.538Z,4.45
2023-12-30T20:57:13.068Z,4.88
2023-12-30T20:59:41.632Z,5.05
2023-12-30T21:02:08.263Z,5.88
2023-12-30T21:04:36.010Z,4.70
2023-12-30T21:07:02.630Z,4.85
2023-12-30T21:09:29.113Z,4.68
2023-12-30T21:11:56.646Z,4.68
2023-12-30T21:14:23.143Z,4.72
2023-12-30T21:16:50.837Z,4.32
2023-12-30T21:19:17.664Z,5.20
2023-12-30T21:21:44.219Z,5.45
2023-12-30T21:24:10.621Z,4.07
2023-12-30T21:26:37.081Z,5.95
2023-12-30T21:29:03.515Z,4.78
2023-12-30T21:31:30.238Z,5.38
2023-12-30T21:33:56.818Z,6.00
2023-12-30T21:36:23.844Z,6.93
2023-12-30T21:38:50.321Z,5.88
2023-12-30T21:41:25.990Z,5.22
2023-12-30T21:43:52.601Z,4.65
2023-12-30T21:46:19.191Z,4.03
2023-12-30T21:48:45.932Z,4.00
2023-12-30T21:51:14.356Z,4.60
2023-12-30T21:53:44.442Z,3.90
2023-12-30T21:56:11.832Z,4.03
2023-12-30T21:58:38.681Z,4.10
2023-12-30T22:01:05.210Z,4.50
2023-12-30T22:03:31.850Z,3.90
2023-12-30T22:05:58.326Z,4.88
2023-12-30T22:08:24.728Z,4.68
2023-12-30T22:10:51.126Z,5.70
2023-12-30T22:13:17.653Z,5.05
2023-12-30T22:15:44.163Z,3.80
2023-12-30T22:18:10.771Z,4.22
2023-12-30T22:20:37.716Z,3.70
2023-12-30T22:23:04.578Z,3.53
2023-12-30T22:25:31.275Z,3.35
2023-12-30T22:27:57.837Z,4.38
2023-12-30T22:30:24.315Z,4.97
2023-12-30T22:32:50.769Z,3.80
2023-12-30T22:35:17.259Z,4.75
2023-12-30T22:37:43.868Z,4.60
2023-12-30T22:40:10.825Z,4.18
2023-12-30T22:42:38.755Z,4.03
2023-12-30T22:45:06.768Z,3.92
2023-12-30T22:47:33.289Z,3.95
2023-12-30T22:49:59.856Z,3.53
2023-12-30T22:52:26.357Z,3.72
2023-12-30T22:54:52.868Z,4.43
2023-12-30T22:57:19.303Z,4.30
2023-12-30T22:59:45.754Z,4.97
2023-12-30T23:02:12.390Z,5.00
2023-12-30T23:04:38.832Z,4.30
2023-12-30T23:07:05.371Z,4.57
2023-12-30T23:09:32.128Z,5.20
2023-12-30T23:11:58.543Z,4.13
2023-12-30T23:14:26.113Z,4.00
2023-12-30T23:16:53.501Z,4.30
2023-12-30T23:19:20.070Z,4.53
2023-12-30T23:21:46.755Z,4.40
2023-12-30T23:24:13.279Z,4.47
2023-12-30T23:26:39.800Z,4.63
2023-12-30T23:29:06.675Z,5.00
2023-12-30T23:31:33.148Z,4.28
2023-12-30T23:33:59.678Z,5.32
2023-12-30T23:36:27.012Z,4.88
2023-12-30T23:38:53.499Z,4.45
2023-12-30T23:41:19.909Z,3.65
2023-12-30T23:43:46.415Z,3.70
2023-12-30T23:46:13.161Z,3.55
2023-12-30T23:48:39.776Z,3.50
2023-12-30T23:51:06.244Z,4.68
2023-12-30T23:53:32.692Z,3.63
2023-12-30T23:56:02.953Z,3.00
2023-12-30T23:58:29.393Z,3.20
